Time;durP1;ratioP1;P1;durP2;ratioP2;P2;SDS_P1;SDS_P2;PMS_P1;PMS_P2;Temp;Humidity;BMP_temperature;BMP_pressure;BME280_temperature;BME280_humidity;BME280_pressure;Samples;Min_cycle;Max_cycle;Signal;HPM_P1;HPM_P2
2022/06/14 00:00:54;;;;;;;;;;;;;;;16.72;56.90;100366.88;5069793;28;969;-63
2022/06/14 00:03:29;;;;;;;;;;;;;;;16.63;56.68;100366.66;5075699;28;870;-63
2022/06/14 00:05:55;;;;;;;;;;;;;;;16.61;56.48;100377.09;5057809;28;1087;-64
2022/06/14 00:08:21;;;;;;;;;;;;;;;16.57;56.64;100370.53;5067751;28;984;-63
2022/06/14 00:10:47;;;;;;;;;;;;;;;16.62;56.22;100373.25;5075200;28;1003;-64
2022/06/14 00:13:12;;;;;;;;;;;;;;;16.48;56.46;100369.47;5069574;28;1016;-64
2022/06/14 00:15:38;;;;;;;;;;;;;;;16.54;56.28;100373.84;5067559;28;1077;-63
2022/06/14 00:18:03;;;;;;;;;;;;;;;16.46;56.46;100368.94;5075837;28;1941;-64
2022/06/14 00:20:28;;;;;;;;;;;;;;;16.40;56.63;100371.72;5068426;28;988;-64
2022/06/14 00:22:54;;;;;;;;;;;;;;;16.40;56.47;100365.41;5067274;28;1082;-65
2022/06/14 00:25:23;;;;;;;;;;;;;;;16.39;56.53;100372.81;5070095;28;1113;-64
2022/06/14 00:27:49;;;;;;;;;;;;;;;16.38;56.53;100368.44;5066014;28;1110;-64
2022/06/14 00:30:14;;;;;;;;;;;;;;;16.37;56.33;100369.53;5049434;28;1356;-64
2022/06/14 00:32:39;;;;;;;;;;;;;;;16.30;56.40;100366.28;5070311;28;1032;-65
2022/06/14 00:35:05;;;;;;;;;;;;;;;16.27;56.18;100374.25;5063459;28;1068;-64
2022/06/14 00:37:31;;;;;;;;;;;;;;;16.33;56.27;100365.72;5046027;28;984;-65
2022/06/14 00:39:56;;;;;;;;;;;;;;;16.20;56.31;100369.91;5072099;28;1922;-63
2022/06/14 00:42:22;;;;;;;;;;;;;;;16.22;56.04;100353.97;5072758;28;1056;-64
2022/06/14 00:45:02;;;;;;;;;;;;;;;16.16;56.20;100368.81;5067125;28;960;-64
2022/06/14 00:47:28;;;;;;;;;;;;;;;16.19;56.45;100367.44;5069799;28;995;-65
2022/06/14 00:49:54;;;;;;;;;;;;;;;17.83;58.81;100370.09;5054031;28;1044;-65
2022/06/14 00:52:24;;;;;;;;;;;;;;;19.23;58.27;100367.13;5065388;28;1067;-65
2022/06/14 00:54:51;;;;;;;;;;;;;;;19.42;57.58;100365.13;5055161;28;897;-65
2022/06/14 00:57:24;;;;;;;;;;;;;;;19.90;59.52;100368.69;5045871;28;1040;-64
2022/06/14 01:00:01;;;;;;;;;;;;;;;17.99;59.99;100370.75;5048274;28;1914;-64
2022/06/14 01:02:28;;;;;;;;;;;;;;;17.05;60.80;100369.97;5063741;28;992;-64
2022/06/14 01:04:53;;;;;;;;;;;;;;;16.89;59.64;100372.03;5068054;28;960;-64
2022/06/14 01:07:21;;;;;;;;;;;;;;;16.80;58.90;100362.69;5067145;28;1155;-64
2022/06/14 01:09:50;;;;;;;;;;;;;;;16.74;58.31;100354.50;5068357;28;1047;-64
2022/06/14 01:12:20;;;;;;;;;;;;;;;16.66;57.69;100363.34;5072369;28;1107;-64
2022/06/14 01:14:57;;;;;;;;;;;;;;;16.66;57.28;100362.50;5055262;28;1757;-65
2022/06/14 01:17:23;;;;;;;;;;;;;;;16.55;57.04;100356.25;5069886;28;1044;-65
2022/06/14 01:19:48;;;;;;;;;;;;;;;16.51;56.88;100361.50;5072012;28;1913;-64
2022/06/14 01:22:14;;;;;;;;;;;;;;;16.43;57.07;100354.69;5059025;28;1000;-66
2022/06/14 01:24:40;;;;;;;;;;;;;;;16.48;56.80;100351.09;5069490;28;1142;-64
2022/06/14 01:27:05;;;;;;;;;;;;;;;16.40;56.86;100349.75;5071806;28;956;-64
2022/06/14 01:29:32;;;;;;;;;;;;;;;16.33;56.46;100354.75;5055298;28;1163;-64
2022/06/14 01:31:59;;;;;;;;;;;;;;;16.33;56.53;100357.50;5059942;28;818;-64
2022/06/14 01:34:24;;;;;;;;;;;;;;;16.36;56.29;100365.16;5060747;28;1130;-63
2022/06/14 01:36:50;;;;;;;;;;;;;;;16.33;56.37;100365.72;5066566;28;1051;-63
2022/06/14 01:39:15;;;;;;;;;;;;;;;16.29;56.33;100364.63;5072254;28;1906;-63
2022/06/14 01:41:59;;;;;;;;;;;;;;;16.26;56.29;100376.19;5072458;28;1482;-63
2022/06/14 01:44:37;;;;;;;;;;;;;;;16.21;56.41;100363.28;5073488;28;1385;-64
2022/06/14 01:47:02;;;;;;;;;;;;;;;16.23;56.35;100374.81;5065600;28;1048;-64
2022/06/14 01:52:26;;;;;;;;;;;;;;;17.68;59.53;100373.81;5066736;28;1032;-64
2022/06/14 01:54:52;;;;;;;;;;;;;;;19.19;58.75;100374.34;5066384;28;1138;-64
2022/06/14 01:57:23;;;;;;;;;;;;;;;19.58;57.96;100373.13;5072472;28;926;-63
2022/06/14 02:00:01;;;;;;;;;;;;;;;19.78;59.00;100367.22;5069095;28;1974;-64
2022/06/14 02:02:37;;;;;;;;;;;;;;;18.12;60.45;100365.34;5067828;28;977;-63
2022/06/14 02:05:05;;;;;;;;;;;;;;;17.08;60.82;100375.72;5070314;28;984;-64
2022/06/14 02:07:52;;;;;;;;;;;;;;;16.98;59.95;100377.72;5075730;28;956;-64
2022/06/14 02:10:21;;;;;;;;;;;;;;;16.84;58.87;100369.28;5050765;28;981;-64
2022/06/14 02:12:58;;;;;;;;;;;;;;;16.70;58.37;100367.16;5051858;28;1147;-64
2022/06/14 02:15:29;;;;;;;;;;;;;;;16.69;57.66;100368.28;5053289;28;1021;-64
2022/06/14 02:18:01;;;;;;;;;;;;;;;16.58;57.60;100366.69;5069585;28;1910;-64
2022/06/14 02:20:29;;;;;;;;;;;;;;;16.57;57.32;100370.53;5070446;28;1059;-65
2022/06/14 02:22:56;;;;;;;;;;;;;;;16.46;57.22;100374.44;5073446;28;1132;-65
2022/06/14 02:25:23;;;;;;;;;;;;;;;16.46;56.88;100375.25;5052726;28;1075;-65
2022/06/14 02:27:52;;;;;;;;;;;;;;;16.41;56.86;100376.09;5055799;28;1155;-65
2022/06/14 02:30:22;;;;;;;;;;;;;;;16.37;56.81;100372.28;5065689;28;1114;-64
2022/06/14 02:32:48;;;;;;;;;;;;;;;16.35;56.64;100379.97;5047045;28;1115;-64
2022/06/14 02:35:22;;;;;;;;;;;;;;;16.37;56.64;100377.78;5076240;28;1012;-64
2022/06/14 02:38:06;;;;;;;;;;;;;;;16.36;56.47;100375.31;5054610;28;1576;-64
2022/06/14 02:40:44;;;;;;;;;;;;;;;16.26;56.75;100384.41;5068998;28;1028;-65
2022/06/14 02:43:12;;;;;;;;;;;;;;;16.26;56.49;100381.66;5068657;28;1072;-63
2022/06/14 02:45:54;;;;;;;;;;;;;;;16.22;56.67;100375.09;5070220;28;1064;-64
2022/06/14 02:48:21;;;;;;;;;;;;;;;16.87;59.00;100385.16;5049954;28;1202;-64
2022/06/14 02:50:50;;;;;;;;;;;;;;;18.61;59.78;100381.81;5052424;28;1008;-64
2022/06/14 02:53:26;;;;;;;;;;;;;;;19.66;59.10;100383.44;5041976;28;1214;-64
2022/06/14 02:55:53;;;;;;;;;;;;;;;19.59;56.93;100380.28;5051083;28;1016;-64
2022/06/14 02:58:18;;;;;;;;;;;;;;;19.91;59.93;100384.94;5065940;28;1925;-64
2022/06/14 03:00:45;;;;;;;;;;;;;;;18.16;61.41;100392.28;5064026;28;1072;-64
2022/06/14 03:03:31;;;;;;;;;;;;;;;17.65;60.20;100390.88;5053525;28;1021;-64
2022/06/14 03:06:01;;;;;;;;;;;;;;;17.41;59.29;100394.41;5065683;28;1430;-64
2022/06/14 03:08:39;;;;;;;;;;;;;;;17.26;58.55;100389.84;5049257;28;1076;-63
2022/06/14 03:11:25;;;;;;;;;;;;;;;17.11;57.96;100388.06;5054840;28;1083;-64
2022/06/14 03:13:50;;;;;;;;;;;;;;;17.05;57.59;100387.25;5063719;28;1051;-64
2022/06/14 03:16:24;;;;;;;;;;;;;;;16.91;57.52;100391.75;5067489;28;1150;-66
2022/06/14 03:19:02;;;;;;;;;;;;;;;16.82;57.42;100388.78;5070911;28;1972;-65
2022/06/14 03:21:35;;;;;;;;;;;;;;;16.76;57.04;100390.75;5066273;28;952;-68
2022/06/14 03:24:06;;;;;;;;;;;;;;;16.72;57.01;100394.34;5050048;28;1075;-68
2022/06/14 03:26:36;;;;;;;;;;;;;;;16.72;56.57;100395.16;5071778;28;1052;-68
2022/06/14 03:29:09;;;;;;;;;;;;;;;16.68;56.53;100399.56;5048834;28;1005;-66
2022/06/14 03:31:54;;;;;;;;;;;;;;;16.56;56.92;100388.09;5042082;28;1009;-67
2022/06/14 03:34:25;;;;;;;;;;;;;;;16.52;56.87;100395.25;5051439;28;977;-66
2022/06/14 03:36:51;;;;;;;;;;;;;;;16.52;56.46;100396.09;5054078;28;1207;-66
2022/06/14 03:39:18;;;;;;;;;;;;;;;16.46;56.83;100394.47;5046829;28;1963;-66
2022/06/14 03:41:44;;;;;;;;;;;;;;;16.47;56.57;100401.59;5053867;28;1190;-66
2022/06/14 03:44:10;;;;;;;;;;;;;;;16.42;56.74;100398.88;5045790;28;1048;-66
2022/06/14 03:46:59;;;;;;;;;;;;;;;16.45;56.36;100392.81;5052216;28;1146;-67
2022/06/14 03:49:26;;;;;;;;;;;;;;;16.37;56.32;100399.72;5059842;28;1036;-67
2022/06/14 03:51:55;;;;;;;;;;;;;;;16.37;56.34;100413.44;5069881;28;1033;-68
2022/06/14 03:54:33;;;;;;;;;;;;;;;16.30;56.42;100390.16;5052559;28;977;-69
2022/06/14 03:57:02;;;;;;;;;;;;;;;16.31;56.57;100395.34;5071572;28;1017;-68
2022/06/14 03:59:27;;;;;;;;;;;;;;;16.25;56.44;100396.47;5058719;28;1973;-68
2022/06/14 04:01:55;;;;;;;;;;;;;;;16.25;56.52;100391.00;5069097;28;1068;-69
2022/06/14 04:04:23;;;;;;;;;;;;;;;16.25;56.83;100393.75;5058033;28;1389;-69
2022/06/14 04:06:52;;;;;;;;;;;;;;;16.23;56.64;100399.50;5069983;28;1126;-68
2022/06/14 04:09:31;;;;;;;;;;;;;;;16.27;56.13;100393.44;5062694;28;1005;-70
2022/06/14 04:12:06;;;;;;;;;;;;;;;16.24;56.16;100401.16;5057217;28;992;-68
2022/06/14 04:14:50;;;;;;;;;;;;;;;16.19;56.26;100403.09;5065064;28;1142;-67
2022/06/14 04:17:19;;;;;;;;;;;;;;;17.81;59.25;100408.03;5047650;28;1064;-66
2022/06/14 04:19:47;;;;;;;;;;;;;;;19.20;58.55;100409.88;5041556;28;1968;-67
2022/06/14 04:22:19;;;;;;;;;;;;;;;19.37;57.36;100409.31;5058590;28;1021;-67
2022/06/14 04:25:04;;;;;;;;;;;;;;;19.63;59.43;100420.72;5058718;28;1175;-66
2022/06/14 04:27:33;;;;;;;;;;;;;;;17.94;60.40;100421.16;5039342;28;1132;-67
2022/06/14 04:30:02;;;;;;;;;;;;;;;17.50;59.46;100430.34;5067348;28;985;-68
2022/06/14 04:32:33;;;;;;;;;;;;;;;17.22;58.94;100435.50;5045425;28;1110;-67
2022/06/14 04:34:59;;;;;;;;;;;;;;;17.15;58.04;100430.31;5066331;28;1178;-67
2022/06/14 04:37:29;;;;;;;;;;;;;;;17.05;57.78;100430.41;5060067;28;1059;-66
2022/06/14 04:40:05;;;;;;;;;;;;;;;16.93;57.53;100428.81;5060956;28;1905;-65
2022/06/14 04:42:39;;;;;;;;;;;;;;;16.88;57.44;100439.00;5048855;28;1031;-67
2022/06/14 04:45:09;;;;;;;;;;;;;;;16.86;56.93;100432.97;5050465;28;1230;-62
2022/06/14 04:47:35;;;;;;;;;;;;;;;16.81;56.73;100441.22;5056404;28;1080;-62
2022/06/14 04:50:02;;;;;;;;;;;;;;;16.75;56.65;100449.50;5062436;28;1150;-62
2022/06/14 04:52:29;;;;;;;;;;;;;;;16.63;56.92;100442.69;5051199;28;996;-63
2022/06/14 04:55:02;;;;;;;;;;;;;;;16.68;56.55;100450.91;5067722;28;1028;-63
2022/06/14 04:57:32;;;;;;;;;;;;;;;16.62;56.57;100449.28;5042274;28;1049;-63
2022/06/14 05:00:04;;;;;;;;;;;;;;;16.55;56.59;100450.44;5055551;28;2000;-62
2022/06/14 05:02:59;;;;;;;;;;;;;;;16.51;56.67;100452.09;5049543;28;1045;-62
2022/06/14 05:05:38;;;;;;;;;;;;;;;16.49;56.63;100451.53;5051766;28;1646;-62
2022/06/14 05:08:04;;;;;;;;;;;;;;;16.51;56.47;100465.81;5042130;28;977;-60
2022/06/14 05:10:46;;;;;;;;;;;;;;;16.46;56.48;100454.03;5067066;28;1020;-63
2022/06/14 05:13:17;;;;;;;;;;;;;;;16.43;56.29;100458.16;5062107;28;1047;-63
2022/06/14 05:15:45;;;;;;;;;;;;;;;16.40;56.67;100459.53;5049711;28;1046;-63
2022/06/14 05:18:12;;;;;;;;;;;;;;;16.44;56.15;100459.81;5048825;28;1976;-64
2022/06/14 05:20:39;;;;;;;;;;;;;;;16.42;56.46;100456.50;5051172;28;1131;-64
2022/06/14 05:23:05;;;;;;;;;;;;;;;16.33;56.57;100466.44;5068204;28;895;-63
2022/06/14 05:25:49;;;;;;;;;;;;;;;16.30;56.46;100465.06;5068257;28;952;-62
2022/06/14 05:28:15;;;;;;;;;;;;;;;16.38;56.69;100467.22;5068977;28;995;-63
2022/06/14 05:31:04;;;;;;;;;;;;;;;16.48;56.81;100471.03;5046323;28;1207;-63
2022/06/14 05:33:49;;;;;;;;;;;;;;;16.38;56.66;100469.97;5048049;28;1044;-62
2022/06/14 05:36:15;;;;;;;;;;;;;;;16.41;56.43;100465.81;5063764;28;1174;-57
2022/06/14 05:38:57;;;;;;;;;;;;;;;16.29;56.67;100471.63;5064009;28;1913;-65
2022/06/14 05:41:25;;;;;;;;;;;;;;;16.25;56.61;100479.59;5050510;28;1382;-63
2022/06/14 05:43:57;;;;;;;;;;;;;;;16.31;56.32;100469.44;5046148;28;1258;-61
2022/06/14 05:46:25;;;;;;;;;;;;;;;16.26;56.45;100469.47;5049004;28;1333;-62
2022/06/14 05:48:57;;;;;;;;;;;;;;;16.31;56.11;100476.84;5051475;28;1166;-66
2022/06/14 05:51:27;;;;;;;;;;;;;;;16.21;56.37;100477.69;5061599;28;1004;-63
2022/06/14 05:54:11;;;;;;;;;;;;;;;16.19;56.78;100474.44;5050731;28;1068;-65
2022/06/14 05:56:42;;;;;;;;;;;;;;;16.17;56.42;100479.34;5068177;28;977;-64
2022/06/14 05:59:09;;;;;;;;;;;;;;;18.45;52.22;100488.53;5047963;28;1913;-64
2022/06/14 06:01:38;;;;;;;;;;;;;;;18.18;52.96;100484.44;5055030;28;1274;-61
2022/06/14 06:04:16;;;;;;;;;;;;;;;18.06;53.77;100490.34;5063654;28;992;-65
2022/06/14 06:06:46;;;;;;;;;;;;;;;17.97;54.20;100485.78;5054881;28;1076;-60
2022/06/14 06:09:15;;;;;;;;;;;;;;;17.90;54.60;100486.88;5051406;28;1032;-64
2022/06/14 06:11:55;;;;;;;;;;;;;;;17.86;55.00;100485.00;5053293;28;1044;-59
2022/06/14 06:14:20;;;;;;;;;;;;;;;17.87;55.10;100486.66;5052414;28;1171;-65
2022/06/14 06:19:20;;;;;;;;;;;;;;;17.79;55.94;100491.69;5067937;28;1914;-64
2022/06/14 06:21:50;;;;;;;;;;;;;;;17.89;56.10;100492.69;5054230;28;1060;-63
2022/06/14 06:24:18;;;;;;;;;;;;;;;18.21;55.42;100492.09;5058132;28;1281;-64
2022/06/14 06:26:45;;;;;;;;;;;;;;;18.28;55.07;100495.34;5075386;28;897;-65
2022/06/14 06:29:12;;;;;;;;;;;;;;;18.31;54.95;100493.94;5043301;28;1001;-65
2022/06/14 06:31:37;;;;;;;;;;;;;;;18.33;54.97;100499.97;5053287;28;1301;-64
2022/06/14 06:34:03;;;;;;;;;;;;;;;18.30;55.23;100503.31;5050185;28;1021;-65
2022/06/14 06:36:32;;;;;;;;;;;;;;;18.28;55.07;100500.03;5042903;28;1314;-65
2022/06/14 06:39:13;;;;;;;;;;;;;;;18.25;55.04;100509.69;5064225;28;1910;-65
2022/06/14 06:41:51;;;;;;;;;;;;;;;18.25;55.13;100506.94;5076325;28;1052;-63
2022/06/14 06:44:25;;;;;;;;;;;;;;;18.20;54.92;100503.41;5066657;28;996;-63
2022/06/14 06:47:17;;;;;;;;;;;;;;;18.26;54.99;100502.25;5066107;28;1109;-63
2022/06/14 06:49:45;;;;;;;;;;;;;;;18.18;55.10;100500.97;5019231;28;1292;-66
2022/06/14 06:52:11;;;;;;;;;;;;;;;18.17;54.97;100504.00;5067866;28;1091;-66
2022/06/14 06:54:43;;;;;;;;;;;;;;;18.12;54.96;100505.69;5049530;28;880;-64
2022/06/14 06:57:08;;;;;;;;;;;;;;;18.11;54.94;100508.75;5043190;28;869;-65
2022/06/14 06:59:35;;;;;;;;;;;;;;;18.11;55.09;100506.78;5049178;28;1979;-64
2022/06/14 07:02:04;;;;;;;;;;;;;;;18.08;55.23;100512.88;5053821;28;1147;-65
2022/06/14 07:07:20;;;;;;;;;;;;;;;18.13;55.15;100510.09;5044981;28;958;-62
2022/06/14 07:09:51;;;;;;;;;;;;;;;18.63;55.39;100511.75;5041546;28;913;-62
2022/06/14 07:12:20;;;;;;;;;;;;;;;19.58;54.58;100502.75;5069460;28;1021;-63
2022/06/14 07:14:52;;;;;;;;;;;;;;;19.43;55.12;100501.03;5073796;28;1222;-63
2022/06/14 07:17:37;;;;;;;;;;;;;;;19.06;55.51;100511.78;5050538;28;1225;-63
2022/06/14 07:20:09;;;;;;;;;;;;;;;18.88;55.60;100507.06;5047409;28;1983;-62
2022/06/14 07:22:36;;;;;;;;;;;;;;;18.81;55.72;100512.91;5051729;28;1274;-64
2022/06/14 07:25:17;;;;;;;;;;;;;;;18.73;55.65;100506.13;5049228;28;1135;-61
2022/06/14 07:27:45;;;;;;;;;;;;;;;18.70;55.56;100505.88;5063225;28;949;-61
2022/06/14 07:30:11;;;;;;;;;;;;;;;18.64;55.38;100508.69;5056502;28;809;-61
2022/06/14 07:32:38;;;;;;;;;;;;;;;18.59;55.56;100517.03;5059187;28;1118;-60
2022/06/14 07:35:04;;;;;;;;;;;;;;;18.50;55.49;100517.97;5047950;28;1191;-61
2022/06/14 07:37:49;;;;;;;;;;;;;;;18.48;55.77;100515.50;5073102;28;996;-63
2022/06/14 07:40:34;;;;;;;;;;;;;;;18.46;55.54;100520.47;5055364;28;1906;-60
2022/06/14 07:43:02;;;;;;;;;;;;;;;19.09;56.28;100527.72;5067588;28;1099;-61
2022/06/14 07:45:32;;;;;;;;;;;;;;;18.46;57.95;100526.78;5067368;28;942;-62
2022/06/14 07:48:23;;;;;;;;;;;;;;;16.76;65.54;100533.53;5064218;28;1023;-62
2022/06/14 07:50:51;;;;;;;;;;;;;;;18.02;59.33;100533.31;5038481;28;1170;-61
2022/06/14 07:53:18;;;;;;;;;;;;;;;18.28;57.72;100528.38;5062611;28;949;-62
2022/06/14 07:55:47;;;;;;;;;;;;;;;18.32;56.93;100528.63;5050754;28;897;-62
2022/06/14 07:58:33;;;;;;;;;;;;;;;18.35;56.66;100533.53;5061080;28;1976;-61
2022/06/14 08:01:09;;;;;;;;;;;;;;;18.31;56.40;100515.94;5062880;28;1771;-62
2022/06/14 08:03:53;;;;;;;;;;;;;;;18.30;56.19;100525.34;5053957;28;1218;-62
2022/06/14 08:06:20;;;;;;;;;;;;;;;18.66;57.38;100524.91;5058817;28;996;-62
2022/06/14 08:08:46;;;;;;;;;;;;;;;19.60;56.70;100522.56;5068635;28;917;-61
2022/06/14 08:11:15;;;;;;;;;;;;;;;16.28;65.14;100524.88;5040541;28;1434;-61
2022/06/14 08:13:42;;;;;;;;;;;;;;;18.40;61.78;100529.91;5059089;28;939;-61
2022/06/14 08:16:08;;;;;;;;;;;;;;;19.35;58.42;100526.53;5066255;28;1153;-62
2022/06/14 08:18:43;;;;;;;;;;;;;;;19.07;58.36;100524.44;5052298;28;1902;-63
2022/06/14 08:21:12;;;;;;;;;;;;;;;19.00;57.84;100526.75;5041365;28;1294;-62
2022/06/14 08:23:37;;;;;;;;;;;;;;;18.90;57.35;100522.19;5038835;28;986;-62
2022/06/14 08:26:07;;;;;;;;;;;;;;;18.84;56.84;100528.03;5070306;28;1076;-64
2022/06/14 08:28:34;;;;;;;;;;;;;;;18.79;56.80;100521.47;5045460;28;977;-64
2022/06/14 08:31:20;;;;;;;;;;;;;;;18.77;56.52;100534.69;5060719;28;1479;-66
2022/06/14 08:33:48;;;;;;;;;;;;;;;18.73;56.19;100535.59;5065116;28;1299;-63
2022/06/14 08:36:16;;;;;;;;;;;;;;;19.19;57.68;100535.00;5067264;28;1064;-62
2022/06/14 08:39:05;;;;;;;;;;;;;;;17.17;61.91;100528.97;5050255;28;1886;-62
2022/06/14 08:41:44;;;;;;;;;;;;;;;19.09;61.43;100527.72;5055282;28;1406;-62
2022/06/14 08:44:10;;;;;;;;;;;;;;;17.22;62.30;100528.91;5044914;28;996;-62
2022/06/14 08:46:41;;;;;;;;;;;;;;;17.15;66.68;100531.16;5072738;28;1005;-62
2022/06/14 08:49:21;;;;;;;;;;;;;;;18.19;60.92;100534.78;5063409;28;1036;-62
2022/06/14 08:52:05;;;;;;;;;;;;;;;18.46;59.06;100535.06;5068119;28;1063;-62
2022/06/14 08:54:43;;;;;;;;;;;;;;;18.56;57.90;100533.31;5064642;28;1118;-62
2022/06/14 08:57:17;;;;;;;;;;;;;;;18.59;57.48;100538.22;5068293;28;1225;-62
2022/06/14 09:00:02;;;;;;;;;;;;;;;18.58;57.19;100539.34;5067559;28;1969;-62
2022/06/14 09:02:43;;;;;;;;;;;;;;;18.57;56.89;100545.97;5070657;28;1201;-62
2022/06/14 09:05:09;;;;;;;;;;;;;;;19.07;58.51;100549.25;5064534;28;1130;-62
2022/06/14 09:07:53;;;;;;;;;;;;;;;17.40;62.19;100553.00;5066140;28;1031;-62
2022/06/14 09:10:25;;;;;;;;;;;;;;;18.59;64.37;100552.00;5062023;28;1001;-62
2022/06/14 09:12:51;;;;;;;;;;;;;;;18.19;62.00;100559.56;5049605;28;1012;-62
2022/06/14 09:15:26;;;;;;;;;;;;;;;16.89;69.27;100559.56;5064932;28;1178;-62
2022/06/14 09:17:51;;;;;;;;;;;;;;;18.12;62.62;100560.72;5066965;28;1210;-62
2022/06/14 09:20:35;;;;;;;;;;;;;;;18.50;60.08;100556.53;5065433;28;1901;-60
2022/06/14 09:23:01;;;;;;;;;;;;;;;18.59;58.79;100547.31;5069226;28;1183;-61
2022/06/14 09:25:29;;;;;;;;;;;;;;;18.62;58.06;100557.75;5064887;28;989;-61
2022/06/14 09:28:13;;;;;;;;;;;;;;;18.61;57.57;100556.09;5062335;28;1134;-62
2022/06/14 09:30:39;;;;;;;;;;;;;;;18.63;57.34;100553.06;5065005;28;1183;-64
2022/06/14 09:33:15;;;;;;;;;;;;;;;18.63;56.96;100555.81;5071573;28;1083;-64
2022/06/14 09:35:59;;;;;;;;;;;;;;;18.67;56.72;100556.88;5060520;28;1038;-63
2022/06/14 09:38:24;;;;;;;;;;;;;;;18.62;56.46;100549.50;5062087;28;1902;-62
2022/06/14 09:40:50;;;;;;;;;;;;;;;18.56;56.30;100552.59;5068774;28;1230;-63
2022/06/14 09:43:18;;;;;;;;;;;;;;;18.60;56.42;100557.22;5067909;28;1222;-64
2022/06/14 09:45:50;;;;;;;;;;;;;;;18.98;59.66;100551.00;5069109;28;997;-65
2022/06/14 09:48:30;;;;;;;;;;;;;;;17.23;67.52;100549.81;5066448;28;1159;-64
2022/06/14 09:51:15;;;;;;;;;;;;;;;19.39;62.07;100546.88;5069640;28;1138;-64
2022/06/14 09:53:56;;;;;;;;;;;;;;;16.59;63.72;100552.22;5073732;28;1060;-63
2022/06/14 09:56:25;;;;;;;;;;;;;;;18.43;65.58;100546.66;5065363;28;935;-64
2022/06/14 09:58:53;;;;;;;;;;;;;;;17.93;63.40;100544.09;5062162;28;1975;-64
2022/06/14 10:01:20;;;;;;;;;;;;;;;16.96;69.89;100548.28;5065975;28;1047;-63
2022/06/14 10:04:21;;;;;;;;;;;;;;;18.10;63.31;100542.84;5049128;28;1107;-63
2022/06/14 10:06:48;;;;;;;;;;;;;;;18.50;60.14;100556.53;4971914;28;1227;-63
2022/06/14 10:09:13;;;;;;;;;;;;;;;18.59;59.06;100540.97;5050514;28;1104;-65
2022/06/14 10:12:00;;;;;;;;;;;;;;;18.63;58.05;100545.63;5066723;28;1048;-63
2022/06/14 10:14:41;;;;;;;;;;;;;;;18.63;57.68;100534.63;5058365;28;1111;-62
2022/06/14 10:17:12;;;;;;;;;;;;;;;18.63;57.27;100536.53;5076225;28;1043;-63
2022/06/14 10:19:44;;;;;;;;;;;;;;;18.66;57.04;100538.69;5069720;28;1972;-65
2022/06/14 10:22:09;;;;;;;;;;;;;;;18.63;56.86;100534.63;5070123;28;992;-66
2022/06/14 10:24:55;;;;;;;;;;;;;;;18.64;56.63;100535.44;5069700;28;1020;-64
2022/06/14 10:30:21;;;;;;;;;;;;;;;18.59;56.41;100532.72;5052858;28;1080;-65
2022/06/14 10:33:05;;;;;;;;;;;;;;;18.77;57.65;100520.91;5053424;28;969;-64
2022/06/14 10:35:47;;;;;;;;;;;;;;;17.68;62.06;100519.53;5070971;28;1045;-66
2022/06/14 10:38:25;;;;;;;;;;;;;;;18.18;67.06;100522.16;5047204;28;1897;-64
2022/06/14 10:41:01;;;;;;;;;;;;;;;19.03;61.88;100515.13;5064736;28;1047;-66
2022/06/14 10:43:45;;;;;;;;;;;;;;;16.87;69.63;100512.34;5064638;28;934;-66
2022/06/14 10:46:16;;;;;;;;;;;;;;;18.15;62.99;100503.50;5070368;28;1076;-66
2022/06/14 10:48:42;;;;;;;;;;;;;;;18.52;60.23;100500.03;5069563;28;1168;-66
2022/06/14 10:51:26;;;;;;;;;;;;;;;18.66;58.88;100499.31;5075354;28;965;-63
2022/06/14 10:54:10;;;;;;;;;;;;;;;18.69;58.18;100499.56;5067962;28;1032;-64
2022/06/14 10:56:47;;;;;;;;;;;;;;;18.71;57.85;100496.50;5077662;28;1052;-65
2022/06/14 10:59:48;;;;;;;;;;;;;;;18.70;57.23;100490.16;5062145;28;1973;-66
2022/06/14 11:02:14;;;;;;;;;;;;;;;18.71;57.09;100491.00;4974498;28;1280;-65
2022/06/14 11:04:40;;;;;;;;;;;;;;;18.67;56.70;100478.94;5045012;28;1026;-66
2022/06/14 11:07:06;;;;;;;;;;;;;;;18.65;56.60;100482.00;5051359;28;1020;-64
2022/06/14 11:09:50;;;;;;;;;;;;;;;18.65;56.60;100479.25;5063709;28;1001;-63
2022/06/14 11:12:26;;;;;;;;;;;;;;;18.61;56.47;100480.94;5066704;28;1044;-64
2022/06/14 11:14:58;;;;;;;;;;;;;;;18.60;56.33;100473.78;5052791;28;1146;-63
2022/06/14 11:17:42;;;;;;;;;;;;;;;18.55;56.34;100477.44;5065992;28;1008;-65
2022/06/14 11:20:33;;;;;;;;;;;;;;;18.79;57.68;100473.84;5069908;28;1910;-70
2022/06/14 11:23:11;;;;;;;;;;;;;;;17.66;62.33;100467.59;5034456;28;1244;-68
2022/06/14 11:25:42;;;;;;;;;;;;;;;18.13;67.58;100468.81;5059018;28;1025;-67
2022/06/14 11:28:21;;;;;;;;;;;;;;;19.26;61.96;100468.50;5064126;28;1206;-66
2022/06/14 11:30:53;;;;;;;;;;;;;;;16.83;69.77;100456.34;5053413;28;961;-65
2022/06/14 11:33:34;;;;;;;;;;;;;;;18.02;63.87;100464.53;5052310;28;933;-65
2022/06/14 11:35:59;;;;;;;;;;;;;;;18.51;60.44;100457.09;5049853;28;1032;-62
2022/06/14 11:38:44;;;;;;;;;;;;;;;18.66;59.24;100456.06;5073887;28;1964;-64
2022/06/14 11:41:10;;;;;;;;;;;;;;;18.67;58.27;100443.94;5072261;28;1083;-65
2022/06/14 11:44:04;;;;;;;;;;;;;;;18.69;57.83;100432.63;5065042;28;1001;-67
2022/06/14 11:46:36;;;;;;;;;;;;;;;18.69;57.33;100438.97;4990984;28;1132;-64
2022/06/14 11:49:11;;;;;;;;;;;;;;;18.69;57.03;100430.72;5066595;28;1055;-63
2022/06/14 11:51:43;;;;;;;;;;;;;;;18.69;56.72;100432.63;5045917;28;1179;-64
2022/06/14 11:54:09;;;;;;;;;;;;;;;18.65;56.50;100426.91;5054814;28;977;-64
2022/06/14 11:56:45;;;;;;;;;;;;;;;18.65;56.48;100435.19;5072653;28;1122;-66
2022/06/14 11:59:22;;;;;;;;;;;;;;;18.58;56.49;100431.94;5042621;28;1906;-66
2022/06/14 12:01:50;;;;;;;;;;;;;;;18.89;57.92;100426.06;5050446;28;1092;-65
2022/06/14 12:04:23;;;;;;;;;;;;;;;17.75;62.53;100429.28;5062398;28;1090;-68
2022/06/14 12:06:59;;;;;;;;;;;;;;;17.89;68.60;100434.91;5069157;28;1249;-65
2022/06/14 12:09:43;;;;;;;;;;;;;;;19.31;62.33;100430.63;5048059;28;1223;-65
2022/06/14 12:12:14;;;;;;;;;;;;;;;16.82;69.89;100440.94;5068328;28;1039;-63
2022/06/14 12:14:58;;;;;;;;;;;;;;;18.00;64.04;100455.75;5068898;28;1126;-63
2022/06/14 12:17:31;;;;;;;;;;;;;;;18.51;60.63;100461.78;5061100;28;980;-63
2022/06/14 12:20:07;;;;;;;;;;;;;;;18.65;59.28;100462.72;5072294;28;1914;-63
2022/06/14 12:22:38;;;;;;;;;;;;;;;18.68;58.66;100475.03;5065484;28;1055;-64
2022/06/14 12:27:53;;;;;;;;;;;;;;;18.71;57.87;100467.03;5047997;28;962;-66
2022/06/14 12:30:19;;;;;;;;;;;;;;;18.69;57.55;100455.50;5049854;28;1021;-67
2022/06/14 12:32:47;;;;;;;;;;;;;;;18.70;57.08;100465.38;5050900;28;1155;-67
2022/06/14 12:35:17;;;;;;;;;;;;;;;18.68;56.89;100464.88;5065483;28;988;-65
2022/06/14 12:37:43;;;;;;;;;;;;;;;18.79;58.08;100458.09;5069957;28;1162;-66
2022/06/14 12:40:18;;;;;;;;;;;;;;;18.09;62.31;100459.50;5049581;28;1910;-67
2022/06/14 12:43:02;;;;;;;;;;;;;;;17.61;69.67;100456.63;5052556;28;996;-64
2022/06/14 12:45:28;;;;;;;;;;;;;;;19.54;63.12;100461.16;5056686;28;1013;-66
2022/06/14 12:48:12;;;;;;;;;;;;;;;16.74;68.92;100450.59;5065331;28;1186;-66
2022/06/14 12:50:42;;;;;;;;;;;;;;;17.90;65.59;100451.13;5068749;28;1020;-66
2022/06/14 12:53:20;;;;;;;;;;;;;;;18.52;61.34;100444.16;5052520;28;1170;-66
2022/06/14 12:55:53;;;;;;;;;;;;;;;18.68;59.83;100447.50;5074187;28;1102;-66
2022/06/14 12:58:34;;;;;;;;;;;;;;;18.70;58.80;100451.63;5061486;28;1968;-64
2022/06/14 13:01:00;;;;;;;;;;;;;;;18.79;57.97;100454.53;5037948;28;1024;-66
2022/06/14 13:03:31;;;;;;;;;;;;;;;18.76;57.56;100457.88;5062494;28;968;-65
2022/06/14 13:05:58;;;;;;;;;;;;;;;18.73;57.46;100445.53;5068314;28;1055;-66
2022/06/14 13:08:53;;;;;;;;;;;;;;;18.84;57.66;100440.69;5065395;28;1225;-64
2022/06/14 13:11:18;;;;;;;;;;;;;;;18.92;57.86;100442.00;5045251;28;1231;-64
2022/06/14 13:13:47;;;;;;;;;;;;;;;18.89;57.77;100442.59;5065666;28;1016;-65
2022/06/14 13:16:12;;;;;;;;;;;;;;;18.83;57.27;100424.44;5074425;28;1179;-64
2022/06/14 13:18:44;;;;;;;;;;;;;;;18.79;56.95;100433.31;5077548;28;1914;-69
2022/06/14 13:21:18;;;;;;;;;;;;;;;18.77;56.67;100419.00;5077757;28;1173;-63
2022/06/14 13:23:47;;;;;;;;;;;;;;;18.72;56.36;100421.84;5078847;28;1015;-64
2022/06/14 13:26:22;;;;;;;;;;;;;;;18.67;56.68;100427.44;5067547;28;1000;-66
2022/06/14 13:28:50;;;;;;;;;;;;;;;18.69;55.96;100422.44;5049136;28;980;-65